Hauptseite
METAR-TAF:

METAR-TAF

Flughäfen :

Flughafen Réunion

Saint-Denis, Réunion

Breite: 20-53S, Länge: 055-31E, Höhe: 21 m

Beobachtung

Neuester Wetterbericht von vor 33 Minuten, um 22:30 UTC
Wind 5 kt aus Süd
Temperatur 19°C
Luftfeuchtigkeit 73%
Luftdruck 1018 hPa
Sichtweite 10 km oder mehr

METAR: FMEE 232230Z AUTO 18005KT 9999 FEW062/// 19/14 Q1018 NOSIG

Zeit: 03:03 (23:03 UTC)

Prognose

Neuester Wetterbericht von vor 6 Stunden und 3 Minuten, um 17:00 UTC
Gültige Prognose vom 23 um 18 UTC bis 24 um 24 UTC
Wind 12 kt aus Südost
Sichtweite 10 km oder mehr
Leicht bewölkt in der Höhe von 2600 ft
Aufgelockert bewölkt in der Höhe von 4600 ft
Übergehend zu
vom 24 um 04 UTC bis 24 um 06 UTC
Wind 20 kt aus Ost/Südost, Böen bis zu 30 kt
Übergehend zu
vom 24 um 15 UTC bis 24 um 17 UTC
Wind 12 kt aus Ost/Südost

TAF: FMEE 231700Z 2318/2424 13012KT 9999 FEW026 SCT046 BECMG 2404/2406 12020G30KT BECMG 2415/2417 12012KT

Wetterbeobachtungen und Prognosen von mehr als 4000 Flughäfen (METAR und TAF Bericht).

Die verfügbaren Stationen werden durch gelbe und rote Markierungen auf der Karte dargestellt.

Führen Sie die Maus auf sie, um den Namen der Station zu sehen.

Darauf klicken, um die Beobachtung von Wetterbeobachtungen und Prognosen zu sehen.

Um die Karte zu ändern : klicken Sie auf den grünen Tasten mit einem schwarzen Kreuz Zum Vergrößern, auf den grünen Button mit einem Gedankenstrich zu verkleinern, oder auf die grünen Pfeile für benachbarte Karten.


METAR-TAF: